Time;durP1;ratioP1;P1;durP2;ratioP2;P2;SDS_P1;SDS_P2;PMS_P1;PMS_P2;Temp;Humidity;BMP_temperature;BMP_pressure;BME280_temperature;BME280_humidity;BME280_pressure;Samples;Min_cycle;Max_cycle;Signal;HPM_P1;HPM_P2
2024/01/12 00:00:41;;;;;;;;;;;;;;;22.23;14.59;97591.00;5036275;28;1799;-73
2024/01/12 00:03:06;;;;;;;;;;;;;;;22.31;14.63;97597.97;5020616;28;936;-74
2024/01/12 00:05:32;;;;;;;;;;;;;;;22.25;14.49;97599.03;5037111;28;969;-73
2024/01/12 00:07:57;;;;;;;;;;;;;;;22.41;14.35;97592.38;5019933;28;1365;-74
2024/01/12 00:10:23;;;;;;;;;;;;;;;22.33;14.58;97594.72;5019862;28;951;-73
2024/01/12 00:12:49;;;;;;;;;;;;;;;22.32;14.41;97593.88;5037456;28;1016;-73
2024/01/12 00:15:15;;;;;;;;;;;;;;;22.25;14.43;97597.00;5019038;28;1894;-73
2024/01/12 00:17:40;;;;;;;;;;;;;;;22.36;14.41;97588.88;5018404;28;1065;-74
2024/01/12 00:20:06;;;;;;;;;;;;;;;22.40;14.56;97582.31;5019716;28;908;-74
2024/01/12 00:22:32;;;;;;;;;;;;;;;22.33;14.68;97587.00;5019807;28;963;-73
2024/01/12 00:24:57;;;;;;;;;;;;;;;22.31;14.45;97586.63;5037019;28;870;-74
2024/01/12 00:27:23;;;;;;;;;;;;;;;22.29;14.74;97577.03;4979084;28;1139;-74
2024/01/12 00:29:48;;;;;;;;;;;;;;;22.27;14.38;97571.81;4995248;28;1009;-74
2024/01/12 00:32:14;;;;;;;;;;;;;;;22.19;14.40;97579.00;4962915;28;1354;-74
2024/01/12 00:34:40;;;;;;;;;;;;;;;22.14;14.55;97587.28;4979034;28;1910;-74
2024/01/12 00:37:06;;;;;;;;;;;;;;;22.18;14.79;97583.09;4979097;28;1245;-74
2024/01/12 00:39:32;;;;;;;;;;;;;;;22.24;14.53;97589.75;4979087;28;999;-74
2024/01/12 00:41:58;;;;;;;;;;;;;;;22.21;14.65;97576.47;4962946;28;1105;-74
2024/01/12 00:44:24;;;;;;;;;;;;;;;22.09;14.52;97580.91;4946904;28;1252;-74
2024/01/12 00:46:50;;;;;;;;;;;;;;;22.21;14.47;97576.47;4978980;28;1120;-74
2024/01/12 00:49:17;;;;;;;;;;;;;;;22.29;14.41;97577.81;4940041;29;1107;-74
2024/01/12 00:51:43;;;;;;;;;;;;;;;22.25;14.66;97576.34;4940147;29;1112;-74
2024/01/12 00:54:09;;;;;;;;;;;;;;;22.11;14.77;97571.97;4939801;29;1902;-74
2024/01/12 00:56:34;;;;;;;;;;;;;;;22.25;14.32;97579.19;4940207;29;945;-74
2024/01/12 00:59:00;;;;;;;;;;;;;;;22.29;14.50;97572.16;4923923;29;1070;-74
2024/01/12 01:01:25;;;;;;;;;;;;;;;22.26;14.55;97561.72;4940235;29;1101;-74
2024/01/12 01:03:51;;;;;;;;;;;;;;;22.32;14.49;97550.59;4928038;28;997;-74
2024/01/12 01:06:16;;;;;;;;;;;;;;;22.35;14.41;97552.50;4978466;28;1338;-74
2024/01/12 01:08:42;;;;;;;;;;;;;;;22.22;14.54;97549.72;4962397;28;1021;-74
2024/01/12 01:11:08;;;;;;;;;;;;;;;22.07;14.47;97554.28;4994709;28;944;-74
2024/01/12 01:13:35;;;;;;;;;;;;;;;22.28;14.39;97559.25;4994491;28;1981;-74
2024/01/12 01:16:02;;;;;;;;;;;;;;;22.32;14.16;97565.53;4978639;28;982;-73
2024/01/12 01:18:30;;;;;;;;;;;;;;;22.21;14.45;97559.47;4978499;28;1146;-74
2024/01/12 01:20:57;;;;;;;;;;;;;;;22.15;14.42;97557.69;5009342;28;972;-74
2024/01/12 01:23:22;;;;;;;;;;;;;;;22.26;14.44;97552.44;5017472;28;1055;-73
2024/01/12 01:25:48;;;;;;;;;;;;;;;22.12;14.70;97550.88;5000953;28;1006;-74
2024/01/12 01:28:14;;;;;;;;;;;;;;;22.31;14.28;97555.47;5016837;28;962;-74
2024/01/12 01:30:39;;;;;;;;;;;;;;;22.34;14.21;97554.56;5018530;28;1210;-74
2024/01/12 01:33:05;;;;;;;;;;;;;;;22.18;14.44;97549.06;5000035;28;1902;-74
2024/01/12 01:35:30;;;;;;;;;;;;;;;22.24;14.26;97541.56;5014157;28;1008;-73
2024/01/12 01:37:56;;;;;;;;;;;;;;;22.14;14.58;97548.41;4997480;28;1273;-73
2024/01/12 01:40:21;;;;;;;;;;;;;;;22.27;14.18;97556.84;4981455;28;1222;-74
2024/01/12 01:42:48;;;;;;;;;;;;;;;22.24;14.34;97552.91;4974413;28;996;-74
2024/01/12 01:45:14;;;;;;;;;;;;;;;21.96;14.61;97546.16;4958785;28;1108;-73
2024/01/12 01:47:39;;;;;;;;;;;;;;;22.28;14.43;97553.56;4974527;28;1173;-73
2024/01/12 01:50:05;;;;;;;;;;;;;;;22.29;14.35;97543.03;4942452;28;1099;-74
2024/01/12 01:52:30;;;;;;;;;;;;;;;22.40;14.30;97543.41;4958763;28;1066;-73
2024/01/12 01:54:56;;;;;;;;;;;;;;;22.34;14.25;97557.38;4935745;29;1985;-74
2024/01/12 01:57:22;;;;;;;;;;;;;;;22.13;14.41;97554.53;4936280;29;980;-73
2024/01/12 01:59:47;;;;;;;;;;;;;;;22.21;14.30;97564.34;4954584;29;1154;-74
2024/01/12 02:02:13;;;;;;;;;;;;;;;22.21;14.25;97562.31;4953761;29;1843;-74
2024/01/12 02:04:38;;;;;;;;;;;;;;;22.18;14.37;97559.63;4955339;29;980;-74
2024/01/12 02:07:04;;;;;;;;;;;;;;;21.94;14.88;97567.72;4955244;29;1072;-74
2024/01/12 02:09:31;;;;;;;;;;;;;;;22.12;14.54;97567.91;4937400;29;1489;-74
2024/01/12 02:11:57;;;;;;;;;;;;;;;22.15;14.41;97566.97;4936071;29;1267;-74
2024/01/12 02:14:22;;;;;;;;;;;;;;;22.14;14.32;97558.97;4950223;29;1918;-75
2024/01/12 02:16:48;;;;;;;;;;;;;;;21.89;14.64;97548.47;4955312;28;1021;-73
2024/01/12 02:19:14;;;;;;;;;;;;;;;22.22;14.59;97549.72;4974507;28;1247;-74
2024/01/12 02:21:39;;;;;;;;;;;;;;;22.18;14.38;97554.75;4974622;28;995;-74
2024/01/12 02:24:05;;;;;;;;;;;;;;;22.06;14.65;97558.38;4974509;28;1124;-74
2024/01/12 02:26:30;;;;;;;;;;;;;;;22.21;14.58;97567.97;5003235;28;1044;-74
2024/01/12 02:28:57;;;;;;;;;;;;;;;22.20;14.56;97557.13;5013615;28;1012;-73
2024/01/12 02:31:22;;;;;;;;;;;;;;;22.09;14.65;97554.63;5013643;28;979;-74
2024/01/12 02:33:49;;;;;;;;;;;;;;;22.25;14.72;97560.16;5013011;28;2045;-74
2024/01/12 02:36:14;;;;;;;;;;;;;;;22.13;14.46;97546.03;5013614;28;1131;-74
2024/01/12 02:38:40;;;;;;;;;;;;;;;22.20;14.67;97552.22;5013997;28;1029;-73
2024/01/12 02:41:05;;;;;;;;;;;;;;;22.23;14.45;97559.03;5017130;28;1009;-74
2024/01/12 02:43:31;;;;;;;;;;;;;;;22.20;14.31;97557.91;5017164;28;987;-74
2024/01/12 02:45:57;;;;;;;;;;;;;;;22.33;14.14;97574.88;5017077;28;983;-74
2024/01/12 02:48:22;;;;;;;;;;;;;;;22.17;14.38;97586.34;5016991;28;1289;-74
2024/01/12 02:50:48;;;;;;;;;;;;;;;22.18;14.34;97583.09;5003889;28;1134;-74
2024/01/12 02:53:13;;;;;;;;;;;;;;;21.98;14.60;97583.34;4999630;28;1980;-72
2024/01/12 02:55:39;;;;;;;;;;;;;;;22.20;14.26;97591.91;4997973;28;990;-71
2024/01/12 02:58:04;;;;;;;;;;;;;;;22.21;14.34;97593.47;5003496;28;1252;-72
2024/01/12 03:00:30;;;;;;;;;;;;;;;22.16;14.31;97596.91;5017456;28;862;-72
2024/01/12 03:02:56;;;;;;;;;;;;;;;22.19;14.30;97596.00;5018717;28;913;-72
2024/01/12 03:05:22;;;;;;;;;;;;;;;22.16;14.48;97601.78;5017692;28;1374;-72
2024/01/12 03:07:47;;;;;;;;;;;;;;;22.25;14.39;97599.81;5017505;28;974;-73
2024/01/12 03:10:13;;;;;;;;;;;;;;;22.21;14.36;97590.66;5018469;28;931;-72
2024/01/12 03:12:38;;;;;;;;;;;;;;;22.11;14.64;97594.66;5018981;28;899;-72
2024/01/12 03:15:04;;;;;;;;;;;;;;;21.93;14.63;97588.78;5016662;28;1977;-72
2024/01/12 03:17:30;;;;;;;;;;;;;;;22.15;14.46;97588.88;5018829;28;940;-72
2024/01/12 03:19:55;;;;;;;;;;;;;;;21.80;15.03;97580.31;5018890;28;940;-71
2024/01/12 03:22:21;;;;;;;;;;;;;;;22.16;14.58;97587.63;5017488;28;958;-72
2024/01/12 03:24:46;;;;;;;;;;;;;;;22.21;14.59;97593.47;5017342;28;957;-72
2024/01/12 03:27:12;;;;;;;;;;;;;;;22.29;14.23;97589.16;5000060;28;914;-72
2024/01/12 03:29:38;;;;;;;;;;;;;;;22.17;14.73;97592.81;5017385;28;1031;-72
2024/01/12 03:32:03;;;;;;;;;;;;;;;22.15;14.48;97578.31;5017126;28;915;-72
2024/01/12 03:34:29;;;;;;;;;;;;;;;22.18;14.60;97591.59;5018359;28;1965;-72
2024/01/12 03:36:54;;;;;;;;;;;;;;;22.20;14.34;97597.56;5017689;28;871;-71
2024/01/12 03:39:20;;;;;;;;;;;;;;;22.01;14.81;97595.78;4995994;28;1063;-71
2024/01/12 03:41:46;;;;;;;;;;;;;;;22.04;14.45;97584.34;4996530;28;1261;-72
2024/01/12 03:44:11;;;;;;;;;;;;;;;22.09;14.53;97597.91;4996296;28;986;-72
2024/01/12 03:46:37;;;;;;;;;;;;;;;22.01;14.63;97596.56;4996467;28;1028;-72
2024/01/12 03:49:02;;;;;;;;;;;;;;;22.16;14.68;97602.56;4996575;28;939;-72
2024/01/12 03:51:28;;;;;;;;;;;;;;;22.40;14.34;97602.94;4995406;28;1806;-72
2024/01/12 03:53:53;;;;;;;;;;;;;;;22.31;14.36;97605.69;4996101;28;1892;-72
2024/01/12 03:56:19;;;;;;;;;;;;;;;22.09;14.76;97614.13;5000567;28;986;-71
2024/01/12 03:58:44;;;;;;;;;;;;;;;22.10;14.66;97629.88;4995888;28;1117;-72
2024/01/12 04:01:10;;;;;;;;;;;;;;;22.28;14.25;97621.59;4945172;29;1787;-72
2024/01/12 04:03:36;;;;;;;;;;;;;;;22.34;14.40;97619.75;4957083;29;1017;-72
2024/01/12 04:06:06;;;;;;;;;;;;;;;22.17;14.43;97626.81;4957309;29;1000;-71
2024/01/12 04:08:32;;;;;;;;;;;;;;;22.35;14.28;97638.34;4956835;29;1384;-72
2024/01/12 04:10:57;;;;;;;;;;;;;;;22.24;14.44;97637.91;4971691;28;1027;-72
2024/01/12 04:13:23;;;;;;;;;;;;;;;22.24;14.72;97631.47;4975725;28;2026;-71
2024/01/12 04:15:48;;;;;;;;;;;;;;;22.26;14.68;97638.25;4966602;28;1845;-74
2024/01/12 04:18:14;;;;;;;;;;;;;;;22.14;14.53;97639.09;4973078;28;964;-75
2024/01/12 04:20:39;;;;;;;;;;;;;;;22.17;14.91;97638.16;4963817;28;1885;-74
2024/01/12 04:23:05;;;;;;;;;;;;;;;22.03;14.67;97639.41;4949869;28;1041;-73
2024/01/12 04:25:31;;;;;;;;;;;;;;;22.03;14.70;97645.09;4942066;28;1918;-73
2024/01/12 04:27:56;;;;;;;;;;;;;;;22.14;14.53;97644.75;4937251;29;1146;-72
2024/01/12 04:30:22;;;;;;;;;;;;;;;22.18;14.56;97653.94;4921739;29;1058;-72
2024/01/12 04:32:47;;;;;;;;;;;;;;;22.32;14.36;97650.56;4957124;28;2126;-72
2024/01/12 04:35:13;;;;;;;;;;;;;;;22.11;14.81;97657.00;4995268;28;1977;-72
2024/01/12 04:37:38;;;;;;;;;;;;;;;22.21;14.75;97661.50;4977266;28;2074;-72
2024/01/12 04:40:04;;;;;;;;;;;;;;;22.09;14.65;97667.97;4945348;28;1960;-72
2024/01/12 04:42:30;;;;;;;;;;;;;;;22.23;14.83;97664.69;4994824;28;2189;-73
2024/01/12 04:44:55;;;;;;;;;;;;;;;22.32;14.68;97670.41;4995435;28;1270;-73
2024/01/12 04:47:21;;;;;;;;;;;;;;;22.32;14.58;97678.91;4985659;28;1699;-73
2024/01/12 04:49:47;;;;;;;;;;;;;;;22.18;14.50;97682.25;4975408;28;1135;-73
2024/01/12 04:52:12;;;;;;;;;;;;;;;21.93;14.85;97690.78;4975407;28;1005;-73
2024/01/12 04:54:38;;;;;;;;;;;;;;;22.02;14.74;97688.03;4988254;28;1987;-73
2024/01/12 04:57:03;;;;;;;;;;;;;;;22.23;14.76;97693.03;4978967;28;1512;-72
2024/01/12 04:59:29;;;;;;;;;;;;;;;22.35;14.43;97697.06;4965099;28;1188;-73
2024/01/12 05:01:55;;;;;;;;;;;;;;;22.28;14.63;97692.44;4943321;28;1314;-72
2024/01/12 05:04:20;;;;;;;;;;;;;;;22.10;14.95;97700.72;4974510;28;1370;-73
2024/01/12 05:06:46;;;;;;;;;;;;;;;22.19;14.57;97706.50;4958492;28;1432;-73
2024/01/12 05:09:11;;;;;;;;;;;;;;;22.36;14.66;97710.78;4975366;28;1124;-73
2024/01/12 05:11:37;;;;;;;;;;;;;;;22.29;14.78;97705.34;4957357;28;1479;-73
2024/01/12 05:14:03;;;;;;;;;;;;;;;22.38;14.79;97703.84;4954184;28;1989;-72
2024/01/12 05:16:29;;;;;;;;;;;;;;;22.33;14.92;97708.88;4975194;28;1090;-72
2024/01/12 05:18:54;;;;;;;;;;;;;;;22.08;14.81;97711.72;4975310;28;925;-73
2024/01/12 05:21:20;;;;;;;;;;;;;;;21.95;15.11;97713.75;4974483;28;1319;-72
2024/01/12 05:23:46;;;;;;;;;;;;;;;22.11;15.05;97722.16;4958233;28;1430;-72
2024/01/12 05:26:12;;;;;;;;;;;;;;;22.40;14.49;97729.72;4959188;28;937;-72
2024/01/12 05:28:38;;;;;;;;;;;;;;;22.27;14.57;97741.06;4974838;28;1058;-72
2024/01/12 05:31:03;;;;;;;;;;;;;;;22.38;14.43;97737.88;5008250;28;1104;-73
2024/01/12 05:33:29;;;;;;;;;;;;;;;22.16;14.65;97744.25;5017136;28;1902;-73
2024/01/12 05:35:54;;;;;;;;;;;;;;;22.19;14.65;97749.03;5018501;28;955;-72
2024/01/12 05:38:20;;;;;;;;;;;;;;;22.07;15.15;97749.78;5018391;28;1242;-72
2024/01/12 05:40:46;;;;;;;;;;;;;;;22.27;14.66;97747.53;5036067;28;933;-72
2024/01/12 05:43:11;;;;;;;;;;;;;;;22.22;14.67;97747.31;5035346;28;1326;-73
2024/01/12 05:45:37;;;;;;;;;;;;;;;22.35;14.58;97743.22;5017568;28;1536;-72
2024/01/12 05:48:03;;;;;;;;;;;;;;;22.17;14.79;97748.66;5018490;28;1444;-72
2024/01/12 05:50:29;;;;;;;;;;;;;;;22.22;14.80;97752.97;5018247;28;915;-72
2024/01/12 05:52:54;;;;;;;;;;;;;;;22.31;14.67;97759.53;4999878;28;1662;-73
2024/01/12 05:55:20;;;;;;;;;;;;;;;22.14;14.81;97752.44;5017680;28;1969;-72
2024/01/12 05:57:45;;;;;;;;;;;;;;;22.19;14.80;97760.34;5018238;28;1041;-73
2024/01/12 06:00:11;;;;;;;;;;;;;;;22.24;14.72;97761.84;5018316;28;1040;-72
2024/01/12 06:02:37;;;;;;;;;;;;;;;22.18;14.97;97761.63;5017358;28;1370;-73
2024/01/12 06:05:03;;;;;;;;;;;;;;;22.16;14.83;97766.13;5018608;28;951;-73
2024/01/12 06:07:28;;;;;;;;;;;;;;;22.09;15.09;97772.81;5001511;28;1323;-73
2024/01/12 06:09:54;;;;;;;;;;;;;;;22.16;15.14;97771.81;5017867;28;1244;-73
2024/01/12 06:12:19;;;;;;;;;;;;;;;22.47;14.85;97774.81;5017046;28;1449;-73
2024/01/12 06:14:45;;;;;;;;;;;;;;;22.52;14.63;97779.91;5020218;28;1906;-72
2024/01/12 06:17:11;;;;;;;;;;;;;;;22.21;14.97;97780.53;5020042;28;1433;-72
2024/01/12 06:19:36;;;;;;;;;;;;;;;22.49;14.85;97781.63;4971957;28;1282;-73
2024/01/12 06:22:02;;;;;;;;;;;;;;;22.40;14.96;97786.41;5039443;28;1015;-73
2024/01/12 06:24:27;;;;;;;;;;;;;;;22.45;14.88;97788.66;5005565;28;1049;-73
2024/01/12 06:26:53;;;;;;;;;;;;;;;22.39;14.83;97784.84;4979826;28;1483;-72
2024/01/12 06:29:19;;;;;;;;;;;;;;;22.40;14.80;97783.56;4981546;28;930;-73
2024/01/12 06:31:44;;;;;;;;;;;;;;;22.51;14.86;97784.00;4958911;29;1039;-72
2024/01/12 06:34:10;;;;;;;;;;;;;;;22.29;14.89;97790.38;4958659;29;1906;-73
2024/01/12 06:36:41;;;;;;;;;;;;;;;22.33;15.04;97793.13;4942224;29;1349;-73
2024/01/12 06:39:07;;;;;;;;;;;;;;;22.20;15.25;97801.63;4939502;29;1140;-73
2024/01/12 06:41:33;;;;;;;;;;;;;;;22.18;15.04;97806.97;4939517;29;1629;-72
2024/01/12 06:43:59;;;;;;;;;;;;;;;22.16;15.19;97812.25;4939604;29;1103;-73
2024/01/12 06:46:24;;;;;;;;;;;;;;;22.25;15.02;97808.75;4939474;29;1113;-72
2024/01/12 06:48:50;;;;;;;;;;;;;;;22.25;15.14;97812.38;4954180;29;1356;-72
2024/01/12 06:51:22;;;;;;;;;;;;;;;22.12;15.39;97811.56;4942502;29;993;-72
2024/01/12 06:53:47;;;;;;;;;;;;;;;22.34;14.92;97806.81;4942636;29;1969;-72
2024/01/12 06:56:18;;;;;;;;;;;;;;;22.20;15.23;97812.16;4942697;29;997;-73
2024/01/12 06:58:44;;;;;;;;;;;;;;;22.25;15.02;97798.22;4974166;28;1371;-72
2024/01/12 07:01:09;;;;;;;;;;;;;;;21.97;15.47;97804.78;4977456;28;982;-73
2024/01/12 07:03:35;;;;;;;;;;;;;;;22.25;15.37;97798.22;5015166;28;915;-72
2024/01/12 07:06:00;;;;;;;;;;;;;;;22.12;15.37;97808.75;5021097;28;1123;-72
2024/01/12 07:08:26;;;;;;;;;;;;;;;22.07;15.37;97806.44;5020417;28;1331;-72
2024/01/12 07:10:52;;;;;;;;;;;;;;;22.12;15.37;97803.06;5038526;28;872;-72
2024/01/12 07:13:17;;;;;;;;;;;;;;;21.67;15.67;97809.72;4987179;28;1906;-72
2024/01/12 07:15:43;;;;;;;;;;;;;;;22.11;15.44;97810.00;4961252;28;1306;-72
2024/01/12 07:18:09;;;;;;;;;;;;;;;22.29;15.10;97807.41;4960975;28;1489;-73
2024/01/12 07:20:34;;;;;;;;;;;;;;;22.44;14.94;97809.78;4961328;28;1036;-73
2024/01/12 07:23:00;;;;;;;;;;;;;;;22.21;15.09;97828.69;4977207;28;1151;-73
2024/01/12 07:25:26;;;;;;;;;;;;;;;22.17;15.12;97830.06;4959892;28;1252;-72
2024/01/12 07:27:51;;;;;;;;;;;;;;;22.12;15.16;97836.28;4960164;28;1504;-72
2024/01/12 07:30:17;;;;;;;;;;;;;;;22.12;15.29;97839.91;4961059;28;1324;-72
2024/01/12 07:32:43;;;;;;;;;;;;;;;22.08;15.26;97859.06;4961103;28;918;-73
2024/01/12 07:35:09;;;;;;;;;;;;;;;22.34;15.20;97857.06;4976664;28;1922;-72
2024/01/12 07:37:35;;;;;;;;;;;;;;;22.18;15.38;97866.47;4976246;28;1444;-73
2024/01/12 07:40:01;;;;;;;;;;;;;;;22.27;15.14;97875.06;4960849;28;1127;-72
2024/01/12 07:42:26;;;;;;;;;;;;;;;22.13;15.19;97869.06;4957261;29;955;-72
2024/01/12 07:44:54;;;;;;;;;;;;;;;22.29;15.00;97868.97;4941482;29;1013;-72
2024/01/12 07:47:19;;;;;;;;;;;;;;;22.14;15.60;97877.09;4956470;28;1462;-73
2024/01/12 07:49:45;;;;;;;;;;;;;;;21.96;15.46;97874.78;4937806;29;1444;-72
2024/01/12 07:52:11;;;;;;;;;;;;;;;22.10;15.31;97871.53;4942153;28;1058;-73
2024/01/12 07:54:36;;;;;;;;;;;;;;;22.30;15.46;97874.16;4976337;28;1899;-72
2024/01/12 07:57:02;;;;;;;;;;;;;;;22.04;15.26;97881.81;4960648;28;1518;-72
2024/01/12 07:59:28;;;;;;;;;;;;;;;22.26;15.18;97896.16;4995842;28;1185;-73
2024/01/12 08:01:53;;;;;;;;;;;;;;;22.29;15.21;97888.81;4979903;28;947;-72
2024/01/12 08:04:20;;;;;;;;;;;;;;;22.29;15.29;97889.59;4995890;28;1057;-72
2024/01/12 08:06:45;;;;;;;;;;;;;;;22.32;15.14;97894.34;4979586;28;935;-72
2024/01/12 08:09:13;;;;;;;;;;;;;;;22.25;15.21;97894.56;4962219;28;1388;-72
2024/01/12 08:11:39;;;;;;;;;;;;;;;22.51;15.24;97901.06;4980005;28;978;-72
2024/01/12 08:14:05;;;;;;;;;;;;;;;22.29;15.41;97892.44;4979372;28;1989;-72
2024/01/12 08:16:31;;;;;;;;;;;;;;;22.01;15.73;97896.09;4963256;28;970;-72
2024/01/12 08:18:56;;;;;;;;;;;;;;;22.27;15.31;97900.56;4979782;28;1701;-72
2024/01/12 08:21:22;;;;;;;;;;;;;;;22.18;15.44;97906.16;5014836;28;997;-72
2024/01/12 08:23:48;;;;;;;;;;;;;;;22.11;15.57;97909.19;4987027;28;1241;-72
2024/01/12 08:26:13;;;;;;;;;;;;;;;22.14;15.43;97919.63;5014786;28;917;-72
2024/01/12 08:28:39;;;;;;;;;;;;;;;22.16;15.52;97924.81;4981183;28;1438;-72
2024/01/12 08:31:05;;;;;;;;;;;;;;;22.19;15.55;97913.38;4982303;28;1077;-73
2024/01/12 08:33:30;;;;;;;;;;;;;;;22.08;15.71;97919.34;4998374;28;1903;-73
2024/01/12 08:35:56;;;;;;;;;;;;;;;21.92;15.73;97927.16;4982517;28;1215;-72
2024/01/12 08:38:22;;;;;;;;;;;;;;;21.87;15.91;97933.34;4996775;28;1465;-72
2024/01/12 08:40:47;;;;;;;;;;;;;;;22.04;15.55;97927.16;4982508;28;1185;-72
2024/01/12 08:43:13;;;;;;;;;;;;;;;22.19;15.57;97941.72;4998598;28;1046;-73
2024/01/12 08:45:39;;;;;;;;;;;;;;;22.32;15.61;97936.88;4998339;28;975;-72
2024/01/12 08:48:05;;;;;;;;;;;;;;;22.03;15.64;97930.44;4995912;28;1366;-72
2024/01/12 08:50:30;;;;;;;;;;;;;;;22.20;15.69;97943.31;4998471;28;948;-72
2024/01/12 08:52:56;;;;;;;;;;;;;;;22.23;15.56;97941.63;5014467;28;1065;-72
2024/01/12 08:55:22;;;;;;;;;;;;;;;22.21;15.61;97944.09;4982151;28;1989;-73
2024/01/12 08:57:47;;;;;;;;;;;;;;;22.23;15.74;97959.44;5012850;28;1343;-72
2024/01/12 09:00:13;;;;;;;;;;;;;;;22.28;15.72;97950.38;5019082;28;1072;-72
2024/01/12 09:02:39;;;;;;;;;;;;;;;22.43;15.55;97958.41;5019048;28;892;-73
2024/01/12 09:05:05;;;;;;;;;;;;;;;22.26;15.46;97957.72;5036679;28;939;-72
2024/01/12 09:07:31;;;;;;;;;;;;;;;22.33;15.61;97968.88;5001601;28;1549;-72
2024/01/12 09:09:57;;;;;;;;;;;;;;;22.17;15.68;97977.41;5018359;28;1442;-73
2024/01/12 09:12:22;;;;;;;;;;;;;;;22.29;15.49;97974.63;5002565;28;1226;-73
2024/01/12 09:14:48;;;;;;;;;;;;;;;22.29;15.76;97977.47;5002022;28;1906;-73
2024/01/12 09:17:15;;;;;;;;;;;;;;;22.42;15.58;97976.69;5035735;28;1683;-73
2024/01/12 09:19:40;;;;;;;;;;;;;;;22.18;15.64;97979.03;5002363;28;1371;-72
2024/01/12 09:22:06;;;;;;;;;;;;;;;22.03;16.07;97972.94;5018940;28;996;-73
2024/01/12 09:24:32;;;;;;;;;;;;;;;21.98;15.95;97968.63;5018822;28;1229;-73
2024/01/12 09:26:57;;;;;;;;;;;;;;;21.84;16.04;97972.66;5001655;28;946;-72
2024/01/12 09:29:23;;;;;;;;;;;;;;;22.32;15.53;97979.38;5015100;28;1421;-73
2024/01/12 09:31:48;;;;;;;;;;;;;;;22.29;15.70;97980.31;5036087;28;1282;-72
2024/01/12 09:34:14;;;;;;;;;;;;;;;22.36;15.82;97979.28;5036319;28;1894;-72
2024/01/12 09:36:40;;;;;;;;;;;;;;;22.38;15.67;97978.81;5018956;28;1176;-72
2024/01/12 09:39:06;;;;;;;;;;;;;;;22.31;15.81;97960.78;5018356;28;975;-72
2024/01/12 09:41:37;;;;;;;;;;;;;;;22.19;15.81;97970.06;5017772;28;1326;-72
2024/01/12 09:44:03;;;;;;;;;;;;;;;22.31;15.65;97977.00;5002054;28;925;-72
2024/01/12 09:46:28;;;;;;;;;;;;;;;22.16;16.03;97987.19;4974826;28;939;-72
2024/01/12 09:48:54;;;;;;;;;;;;;;;22.23;15.64;97982.09;4957627;28;1432;-73
2024/01/12 09:51:20;;;;;;;;;;;;;;;22.27;15.67;97977.09;4958557;28;1536;-73
2024/01/12 09:53:45;;;;;;;;;;;;;;;22.23;15.91;97970.78;4939585;29;1978;-73
2024/01/12 09:56:11;;;;;;;;;;;;;;;22.11;15.83;97985.69;4955537;28;1016;-73
2024/01/12 09:58:38;;;;;;;;;;;;;;;22.32;15.85;97985.06;4939525;29;1103;-72
2024/01/12 10:01:03;;;;;;;;;;;;;;;22.45;15.90;97982.25;4955837;28;1486;-73
2024/01/12 10:03:29;;;;;;;;;;;;;;;22.39;15.66;97984.06;4975370;28;1075;-72
2024/01/12 10:05:55;;;;;;;;;;;;;;;22.17;16.01;97995.22;4958948;28;1064;-73
2024/01/12 10:08:20;;;;;;;;;;;;;;;22.31;15.72;97994.81;4958796;28;966;-73
2024/01/12 10:10:46;;;;;;;;;;;;;;;22.16;15.84;97987.19;4974362;28;1695;-73
2024/01/12 10:13:13;;;;;;;;;;;;;;;22.03;16.10;97984.28;4974605;28;971;-72
2024/01/12 10:15:42;;;;;;;;;;;;;;;22.31;16.01;97994.81;4942782;28;1262;-73
2024/01/12 10:18:07;;;;;;;;;;;;;;;22.41;15.59;97997.78;4989490;28;1047;-72
2024/01/12 10:20:36;;;;;;;;;;;;;;;22.27;16.14;97999.78;5021861;28;1370;-73
2024/01/12 10:23:03;;;;;;;;;;;;;;;22.02;16.08;97997.66;5016340;28;1604;-73
2024/01/12 10:25:29;;;;;;;;;;;;;;;22.30;15.78;98004.56;5018391;28;1148;-73
2024/01/12 10:27:58;;;;;;;;;;;;;;;22.26;15.76;98003.88;5001597;28;1253;-73
2024/01/12 10:30:23;;;;;;;;;;;;;;;22.33;15.80;98002.88;5006554;28;1489;-72
2024/01/12 10:32:52;;;;;;;;;;;;;;;22.28;15.88;97998.56;4982341;28;1252;-72
2024/01/12 10:35:20;;;;;;;;;;;;;;;22.29;16.12;98000.16;4965880;28;1914;-72
2024/01/12 10:37:45;;;;;;;;;;;;;;;22.43;15.98;98000.94;4998751;28;1123;-73
2024/01/12 10:40:11;;;;;;;;;;;;;;;22.41;15.87;98009.13;4987356;28;1427;-72
2024/01/12 10:42:37;;;;;;;;;;;;;;;22.41;16.03;98009.13;5014628;28;968;-72
2024/01/12 10:45:02;;;;;;;;;;;;;;;22.28;15.87;98007.06;5014673;28;983;-73
2024/01/12 10:47:32;;;;;;;;;;;;;;;22.25;15.96;98001.50;5032866;28;1303;-73
2024/01/12 10:50:03;;;;;;;;;;;;;;;22.38;16.00;98021.34;5001880;28;909;-73
2024/01/12 10:52:49;;;;;;;;;;;;;;;22.35;15.93;98012.50;4994314;28;1531;-73
2024/01/12 10:55:15;;;;;;;;;;;;;;;22.28;15.95;98007.06;4997036;28;1996;-72
2024/01/12 10:57:41;;;;;;;;;;;;;;;21.99;16.27;98009.09;4995267;28;1443;-72
2024/01/12 11:00:08;;;;;;;;;;;;;;;22.16;16.15;98010.63;4998042;28;968;-72
2024/01/12 11:02:34;;;;;;;;;;;;;;;22.18;16.16;98011.00;5000770;28;1131;-72
2024/01/12 11:05:00;;;;;;;;;;;;;;;22.05;16.24;98021.44;5000456;28;1176;-73
2024/01/12 11:07:25;;;;;;;;;;;;;;;22.24;16.12;98017.69;5000003;28;1228;-72
2024/01/12 11:09:51;;;;;;;;;;;;;;;22.11;16.17;98022.53;4999625;28;1365;-72
2024/01/12 11:12:33;;;;;;;;;;;;;;;22.35;16.17;98011.72;4997485;28;1475;-72
2024/01/12 11:14:59;;;;;;;;;;;;;;;22.24;16.23;98016.91;5016380;28;1902;-73
2024/01/12 11:17:28;;;;;;;;;;;;;;;22.30;16.11;98010.22;5015516;28;1457;-73
2024/01/12 11:20:23;;;;;;;;;;;;;;;22.32;16.12;98012.59;4989595;28;1571;-73
2024/01/12 11:22:49;;;;;;;;;;;;;;;22.34;16.00;98010.94;4965754;28;1365;-73
2024/01/12 11:25:15;;;;;;;;;;;;;;;22.42;16.13;98016.38;4961555;28;1727;-73
2024/01/12 11:27:41;;;;;;;;;;;;;;;22.29;16.35;98017.16;4957494;29;1424;-74
2024/01/12 11:30:09;;;;;;;;;;;;;;;22.38;16.06;98024.19;4953836;29;966;-72
2024/01/12 11:32:35;;;;;;;;;;;;;;;22.27;16.33;98022.44;4958066;29;1022;-73
2024/01/12 11:35:13;;;;;;;;;;;;;;;22.39;16.10;98045.63;4957818;28;1914;-73
2024/01/12 11:37:39;;;;;;;;;;;;;;;22.28;16.20;98041.06;4961002;28;1378;-73
2024/01/12 11:40:09;;;;;;;;;;;;;;;22.33;16.38;98040.53;4961300;28;994;-73
2024/01/12 11:42:36;;;;;;;;;;;;;;;22.28;16.13;98032.56;4963242;28;1084;-72
2024/01/12 11:45:03;;;;;;;;;;;;;;;22.19;16.40;98038.09;4980233;28;1038;-73
2024/01/12 11:47:29;;;;;;;;;;;;;;;22.25;16.33;98036.28;4964132;28;1244;-72
2024/01/12 11:49:55;;;;;;;;;;;;;;;22.25;16.46;98036.28;4963903;28;1020;-72
2024/01/12 11:52:20;;;;;;;;;;;;;;;22.25;16.29;98044.78;4932173;29;1368;-72
2024/01/12 11:54:46;;;;;;;;;;;;;;;22.30;16.11;98044.25;4903610;29;1998;-72
2024/01/12 11:57:12;;;;;;;;;;;;;;;22.21;16.15;98046.94;4903418;29;983;-73
2024/01/12 11:59:37;;;;;;;;;;;;;;;22.23;16.45;98052.16;4944993;29;1144;-72
2024/01/12 12:02:04;;;;;;;;;;;;;;;22.30;16.08;98055.59;4959054;28;1425;-72
2024/01/12 12:04:32;;;;;;;;;;;;;;;22.15;16.31;98054.41;4960625;28;1064;-72
2024/01/12 12:06:58;;;;;;;;;;;;;;;22.22;16.18;98065.53;4960605;28;1224;-73
2024/01/12 12:09:23;;;;;;;;;;;;;;;22.41;16.23;98065.81;4960724;28;1011;-73
2024/01/12 12:11:49;;;;;;;;;;;;;;;22.36;15.98;98053.78;4959600;28;1325;-73
2024/01/12 12:14:14;;;;;;;;;;;;;;;22.35;16.37;98051.41;4975924;28;1965;-73
2024/01/12 12:16:40;;;;;;;;;;;;;;;22.35;16.28;98063.53;4956825;28;995;-73
2024/01/12 12:19:06;;;;;;;;;;;;;;;22.39;16.00;98056.97;4941015;29;972;-73
2024/01/12 12:21:31;;;;;;;;;;;;;;;22.52;16.27;98060.63;4956876;28;1016;-73
2024/01/12 12:23:58;;;;;;;;;;;;;;;21.97;16.45;98060.53;4937072;29;1422;-72
2024/01/12 12:26:23;;;;;;;;;;;;;;;21.75;16.67;98065.16;4937584;29;945;-73
2024/01/12 12:28:49;;;;;;;;;;;;;;;21.96;16.81;98070.25;4944089;28;1049;-73
2024/01/12 12:31:15;;;;;;;;;;;;;;;22.28;16.40;98069.41;5012038;28;970;-73
2024/01/12 12:33:44;;;;;;;;;;;;;;;22.40;16.30;98082.03;4994276;28;1984;-73
2024/01/12 12:36:10;;;;;;;;;;;;;;;22.39;16.32;98079.66;5011614;28;1025;-72
2024/01/12 12:38:35;;;;;;;;;;;;;;;22.60;16.21;98073.38;5012006;28;1025;-72
2024/01/12 12:41:01;;;;;;;;;;;;;;;22.41;16.18;98074.31;5011789;28;998;-73
2024/01/12 12:43:27;;;;;;;;;;;;;;;22.50;16.05;98071.63;5007885;28;1513;-73
2024/01/12 12:45:53;;;;;;;;;;;;;;;22.32;16.26;98075.75;4998306;28;921;-72
2024/01/12 12:48:19;;;;;;;;;;;;;;;22.43;16.16;98074.66;4998243;28;910;-73
2024/01/12 12:50:44;;;;;;;;;;;;;;;22.17;16.57;98080.22;5014747;28;954;-72
2024/01/12 12:53:11;;;;;;;;;;;;;;;22.30;16.28;98089.59;4997417;28;1349;-73